sensor_id;sensor_type;location;lat;lon;timestamp;P1;durP1;ratioP1;P2;durP2;ratioP2
15764;SDS011;7983;50.744;7.086;2023-04-24T00:02:24;0.73;;;0.50;;
15764;SDS011;7983;50.744;7.086;2023-04-24T00:04:50;0.90;;;0.60;;
15764;SDS011;7983;50.744;7.086;2023-04-24T00:07:18;1.00;;;0.60;;
15764;SDS011;7983;50.744;7.086;2023-04-24T00:09:45;0.45;;;0.40;;
15764;SDS011;7983;50.744;7.086;2023-04-24T00:12:13;0.50;;;0.45;;
15764;SDS011;7983;50.744;7.086;2023-04-24T00:14:41;0.50;;;0.43;;
15764;SDS011;7983;50.744;7.086;2023-04-24T00:17:07;0.68;;;0.50;;
15764;SDS011;7983;50.744;7.086;2023-04-24T00:19:34;0.63;;;0.50;;
15764;SDS011;7983;50.744;7.086;2023-04-24T00:22:00;0.50;;;0.50;;
15764;SDS011;7983;50.744;7.086;2023-04-24T00:24:29;0.40;;;0.40;;
15764;SDS011;7983;50.744;7.086;2023-04-24T00:26:57;0.50;;;0.50;;
15764;SDS011;7983;50.744;7.086;2023-04-24T00:29:23;0.80;;;0.60;;
15764;SDS011;7983;50.744;7.086;2023-04-24T00:31:50;0.70;;;0.60;;
15764;SDS011;7983;50.744;7.086;2023-04-24T00:34:16;0.50;;;0.50;;
15764;SDS011;7983;50.744;7.086;2023-04-24T00:36:44;0.98;;;0.60;;
15764;SDS011;7983;50.744;7.086;2023-04-24T00:39:10;1.50;;;0.60;;
15764;SDS011;7983;50.744;7.086;2023-04-24T00:41:35;0.70;;;0.60;;
15764;SDS011;7983;50.744;7.086;2023-04-24T00:44:05;0.60;;;0.60;;
15764;SDS011;7983;50.744;7.086;2023-04-24T00:46:31;0.60;;;0.50;;
15764;SDS011;7983;50.744;7.086;2023-04-24T00:48:59;0.70;;;0.60;;
15764;SDS011;7983;50.744;7.086;2023-04-24T00:51:27;0.43;;;0.30;;
15764;SDS011;7983;50.744;7.086;2023-04-24T00:53:55;0.57;;;0.50;;
15764;SDS011;7983;50.744;7.086;2023-04-24T00:56:23;0.98;;;0.77;;
15764;SDS011;7983;50.744;7.086;2023-04-24T00:58:49;1.00;;;0.73;;
15764;SDS011;7983;50.744;7.086;2023-04-24T01:01:15;1.10;;;0.90;;
15764;SDS011;7983;50.744;7.086;2023-04-24T01:03:45;0.85;;;0.70;;
15764;SDS011;7983;50.744;7.086;2023-04-24T01:06:11;0.75;;;0.73;;
15764;SDS011;7983;50.744;7.086;2023-04-24T01:08:37;0.70;;;0.65;;
15764;SDS011;7983;50.744;7.086;2023-04-24T01:11:07;0.93;;;0.70;;
15764;SDS011;7983;50.744;7.086;2023-04-24T01:13:37;0.60;;;0.60;;
15764;SDS011;7983;50.744;7.086;2023-04-24T01:16:03;0.85;;;0.50;;
15764;SDS011;7983;50.744;7.086;2023-04-24T01:18:29;0.90;;;0.57;;
15764;SDS011;7983;50.744;7.086;2023-04-24T01:20:57;0.80;;;0.60;;
15764;SDS011;7983;50.744;7.086;2023-04-24T01:23:23;0.50;;;0.50;;
15764;SDS011;7983;50.744;7.086;2023-04-24T01:25:49;0.65;;;0.60;;
15764;SDS011;7983;50.744;7.086;2023-04-24T01:28:18;0.80;;;0.70;;
15764;SDS011;7983;50.744;7.086;2023-04-24T01:30:44;0.98;;;0.70;;
15764;SDS011;7983;50.744;7.086;2023-04-24T01:33:10;0.70;;;0.68;;
15764;SDS011;7983;50.744;7.086;2023-04-24T01:35:40;2.92;;;0.98;;
15764;SDS011;7983;50.744;7.086;2023-04-24T01:38:06;1.20;;;0.90;;
15764;SDS011;7983;50.744;7.086;2023-04-24T01:40:34;1.70;;;0.90;;
15764;SDS011;7983;50.744;7.086;2023-04-24T01:43:00;1.20;;;1.10;;
15764;SDS011;7983;50.744;7.086;2023-04-24T01:45:28;1.33;;;1.10;;
15764;SDS011;7983;50.744;7.086;2023-04-24T01:47:56;1.10;;;1.00;;
15764;SDS011;7983;50.744;7.086;2023-04-24T01:50:22;1.27;;;1.02;;
15764;SDS011;7983;50.744;7.086;2023-04-24T01:52:47;1.50;;;1.20;;
15764;SDS011;7983;50.744;7.086;2023-04-24T01:55:13;1.30;;;1.20;;
15764;SDS011;7983;50.744;7.086;2023-04-24T01:57:41;2.30;;;1.38;;
15764;SDS011;7983;50.744;7.086;2023-04-24T02:00:09;1.45;;;0.98;;
15764;SDS011;7983;50.744;7.086;2023-04-24T02:02:38;1.40;;;1.10;;
15764;SDS011;7983;50.744;7.086;2023-04-24T02:05:07;1.58;;;1.15;;
15764;SDS011;7983;50.744;7.086;2023-04-24T02:07:33;0.98;;;0.77;;
15764;SDS011;7983;50.744;7.086;2023-04-24T02:09:59;1.17;;;1.00;;
15764;SDS011;7983;50.744;7.086;2023-04-24T02:12:25;1.05;;;0.90;;
15764;SDS011;7983;50.744;7.086;2023-04-24T02:14:50;1.45;;;1.10;;
15764;SDS011;7983;50.744;7.086;2023-04-24T02:17:16;2.30;;;1.20;;
15764;SDS011;7983;50.744;7.086;2023-04-24T02:19:44;3.25;;;1.60;;
15764;SDS011;7983;50.744;7.086;2023-04-24T02:22:13;2.35;;;1.92;;
15764;SDS011;7983;50.744;7.086;2023-04-24T02:24:38;2.35;;;2.05;;
15764;SDS011;7983;50.744;7.086;2023-04-24T02:27:06;2.53;;;2.30;;
15764;SDS011;7983;50.744;7.086;2023-04-24T02:29:32;2.95;;;2.30;;
15764;SDS011;7983;50.744;7.086;2023-04-24T02:31:58;3.00;;;2.70;;
15764;SDS011;7983;50.744;7.086;2023-04-24T02:34:23;3.83;;;2.90;;
15764;SDS011;7983;50.744;7.086;2023-04-24T02:36:49;3.58;;;2.80;;
15764;SDS011;7983;50.744;7.086;2023-04-24T02:39:15;3.92;;;3.20;;
15764;SDS011;7983;50.744;7.086;2023-04-24T02:41:43;3.30;;;3.00;;
15764;SDS011;7983;50.744;7.086;2023-04-24T02:44:14;3.38;;;3.05;;
15764;SDS011;7983;50.744;7.086;2023-04-24T02:46:39;3.50;;;2.80;;
15764;SDS011;7983;50.744;7.086;2023-04-24T02:49:06;3.42;;;2.88;;
15764;SDS011;7983;50.744;7.086;2023-04-24T02:51:32;3.20;;;2.47;;
15764;SDS011;7983;50.744;7.086;2023-04-24T02:53:58;3.45;;;2.78;;
15764;SDS011;7983;50.744;7.086;2023-04-24T02:56:26;3.38;;;2.55;;
15764;SDS011;7983;50.744;7.086;2023-04-24T02:58:51;3.22;;;2.88;;
15764;SDS011;7983;50.744;7.086;2023-04-24T03:01:21;3.05;;;2.63;;
15764;SDS011;7983;50.744;7.086;2023-04-24T03:03:47;2.80;;;2.55;;
15764;SDS011;7983;50.744;7.086;2023-04-24T03:06:13;2.55;;;2.35;;
15764;SDS011;7983;50.744;7.086;2023-04-24T03:08:38;3.75;;;2.60;;
15764;SDS011;7983;50.744;7.086;2023-04-24T03:11:04;2.55;;;2.30;;
15764;SDS011;7983;50.744;7.086;2023-04-24T03:13:34;3.58;;;2.70;;
15764;SDS011;7983;50.744;7.086;2023-04-24T03:16:00;4.97;;;3.17;;
15764;SDS011;7983;50.744;7.086;2023-04-24T03:18:25;3.72;;;2.92;;
15764;SDS011;7983;50.744;7.086;2023-04-24T03:20:51;3.15;;;2.85;;
15764;SDS011;7983;50.744;7.086;2023-04-24T03:23:17;3.53;;;3.05;;
15764;SDS011;7983;50.744;7.086;2023-04-24T03:25:47;3.20;;;2.80;;
15764;SDS011;7983;50.744;7.086;2023-04-24T03:28:13;3.20;;;2.80;;
15764;SDS011;7983;50.744;7.086;2023-04-24T03:30:39;3.75;;;2.90;;
15764;SDS011;7983;50.744;7.086;2023-04-24T03:33:04;4.32;;;3.47;;
15764;SDS011;7983;50.744;7.086;2023-04-24T03:35:32;3.72;;;3.20;;
15764;SDS011;7983;50.744;7.086;2023-04-24T03:38:01;5.50;;;3.63;;
15764;SDS011;7983;50.744;7.086;2023-04-24T03:40:32;3.60;;;2.90;;
15764;SDS011;7983;50.744;7.086;2023-04-24T03:43:00;4.63;;;3.25;;
15764;SDS011;7983;50.744;7.086;2023-04-24T03:45:28;3.78;;;3.17;;
15764;SDS011;7983;50.744;7.086;2023-04-24T03:47:54;3.80;;;3.40;;
15764;SDS011;7983;50.744;7.086;2023-04-24T03:50:22;4.00;;;3.33;;
15764;SDS011;7983;50.744;7.086;2023-04-24T03:52:50;4.00;;;3.60;;
15764;SDS011;7983;50.744;7.086;2023-04-24T03:55:15;4.43;;;3.70;;
15764;SDS011;7983;50.744;7.086;2023-04-24T03:57:41;6.18;;;4.30;;
15764;SDS011;7983;50.744;7.086;2023-04-24T04:00:11;5.28;;;3.60;;
15764;SDS011;7983;50.744;7.086;2023-04-24T04:02:43;4.95;;;3.58;;
15764;SDS011;7983;50.744;7.086;2023-04-24T04:05:09;4.90;;;3.17;;
15764;SDS011;7983;50.744;7.086;2023-04-24T04:07:39;4.60;;;4.07;;
15764;SDS011;7983;50.744;7.086;2023-04-24T04:10:05;4.90;;;4.10;;
15764;SDS011;7983;50.744;7.086;2023-04-24T04:12:33;3.60;;;3.20;;
15764;SDS011;7983;50.744;7.086;2023-04-24T04:14:59;3.67;;;3.38;;
15764;SDS011;7983;50.744;7.086;2023-04-24T04:17:25;3.80;;;3.28;;
15764;SDS011;7983;50.744;7.086;2023-04-24T04:19:52;3.65;;;3.25;;
15764;SDS011;7983;50.744;7.086;2023-04-24T04:22:21;4.10;;;3.33;;
15764;SDS011;7983;50.744;7.086;2023-04-24T04:24:47;4.03;;;3.28;;
15764;SDS011;7983;50.744;7.086;2023-04-24T04:27:12;3.90;;;3.30;;
15764;SDS011;7983;50.744;7.086;2023-04-24T04:29:38;3.75;;;3.35;;
15764;SDS011;7983;50.744;7.086;2023-04-24T04:32:07;4.13;;;2.90;;
15764;SDS011;7983;50.744;7.086;2023-04-24T04:34:32;3.67;;;3.05;;
15764;SDS011;7983;50.744;7.086;2023-04-24T04:36:58;4.05;;;2.95;;
15764;SDS011;7983;50.744;7.086;2023-04-24T04:39:27;3.65;;;3.20;;
15764;SDS011;7983;50.744;7.086;2023-04-24T04:41:53;4.97;;;3.60;;
15764;SDS011;7983;50.744;7.086;2023-04-24T04:44:21;3.95;;;3.50;;
15764;SDS011;7983;50.744;7.086;2023-04-24T04:46:47;4.38;;;3.20;;
15764;SDS011;7983;50.744;7.086;2023-04-24T04:49:12;4.05;;;3.42;;
15764;SDS011;7983;50.744;7.086;2023-04-24T04:51:41;3.72;;;3.10;;
15764;SDS011;7983;50.744;7.086;2023-04-24T04:54:07;5.93;;;2.92;;
15764;SDS011;7983;50.744;7.086;2023-04-24T04:56:33;3.95;;;3.17;;
15764;SDS011;7983;50.744;7.086;2023-04-24T04:58:58;3.67;;;3.03;;
15764;SDS011;7983;50.744;7.086;2023-04-24T05:01:27;4.22;;;3.13;;
15764;SDS011;7983;50.744;7.086;2023-04-24T05:03:55;4.00;;;2.95;;
15764;SDS011;7983;50.744;7.086;2023-04-24T05:06:23;3.00;;;2.70;;
15764;SDS011;7983;50.744;7.086;2023-04-24T05:08:49;3.03;;;2.63;;
15764;SDS011;7983;50.744;7.086;2023-04-24T05:11:20;3.63;;;3.00;;
15764;SDS011;7983;50.744;7.086;2023-04-24T05:13:48;3.60;;;2.88;;
15764;SDS011;7983;50.744;7.086;2023-04-24T05:16:14;2.95;;;2.60;;
15764;SDS011;7983;50.744;7.086;2023-04-24T05:18:40;3.10;;;2.60;;
15764;SDS011;7983;50.744;7.086;2023-04-24T05:21:06;2.83;;;2.50;;
15764;SDS011;7983;50.744;7.086;2023-04-24T05:23:34;3.00;;;2.65;;
15764;SDS011;7983;50.744;7.086;2023-04-24T05:26:05;2.95;;;2.42;;
15764;SDS011;7983;50.744;7.086;2023-04-24T05:28:35;3.42;;;2.88;;
15764;SDS011;7983;50.744;7.086;2023-04-24T05:31:03;3.35;;;2.72;;
15764;SDS011;7983;50.744;7.086;2023-04-24T05:33:29;3.13;;;2.50;;
15764;SDS011;7983;50.744;7.086;2023-04-24T05:35:55;3.13;;;2.58;;
15764;SDS011;7983;50.744;7.086;2023-04-24T05:38:20;4.15;;;2.67;;
15764;SDS011;7983;50.744;7.086;2023-04-24T05:40:46;5.05;;;3.00;;
15764;SDS011;7983;50.744;7.086;2023-04-24T05:43:12;3.50;;;2.85;;
15764;SDS011;7983;50.744;7.086;2023-04-24T05:45:38;3.05;;;2.72;;
15764;SDS011;7983;50.744;7.086;2023-04-24T05:48:08;3.33;;;2.70;;
15764;SDS011;7983;50.744;7.086;2023-04-24T05:50:34;3.40;;;3.10;;
15764;SDS011;7983;50.744;7.086;2023-04-24T05:53:02;4.47;;;3.40;;
15764;SDS011;7983;50.744;7.086;2023-04-24T05:55:28;4.65;;;3.28;;
15764;SDS011;7983;50.744;7.086;2023-04-24T05:57:55;3.70;;;3.20;;
15764;SDS011;7983;50.744;7.086;2023-04-24T06:00:23;3.80;;;3.40;;
15764;SDS011;7983;50.744;7.086;2023-04-24T06:02:49;4.28;;;3.17;;
15764;SDS011;7983;50.744;7.086;2023-04-24T06:05:17;4.32;;;3.60;;
15764;SDS011;7983;50.744;7.086;2023-04-24T06:07:45;3.42;;;2.90;;
15764;SDS011;7983;50.744;7.086;2023-04-24T06:10:11;4.53;;;3.28;;
15764;SDS011;7983;50.744;7.086;2023-04-24T06:12:37;4.70;;;3.35;;
15764;SDS011;7983;50.744;7.086;2023-04-24T06:15:03;3.65;;;3.00;;
15764;SDS011;7983;50.744;7.086;2023-04-24T06:17:29;4.32;;;3.25;;
15764;SDS011;7983;50.744;7.086;2023-04-24T06:20:00;3.30;;;2.92;;
15764;SDS011;7983;50.744;7.086;2023-04-24T06:22:26;4.43;;;3.03;;
15764;SDS011;7983;50.744;7.086;2023-04-24T06:24:52;4.07;;;3.25;;
15764;SDS011;7983;50.744;7.086;2023-04-24T06:27:19;3.05;;;2.55;;
15764;SDS011;7983;50.744;7.086;2023-04-24T06:29:45;4.32;;;3.28;;
15764;SDS011;7983;50.744;7.086;2023-04-24T06:32:11;5.45;;;3.83;;
15764;SDS011;7983;50.744;7.086;2023-04-24T06:34:36;5.00;;;3.35;;
15764;SDS011;7983;50.744;7.086;2023-04-24T06:37:04;3.33;;;3.03;;
15764;SDS011;7983;50.744;7.086;2023-04-24T06:39:30;4.55;;;3.42;;
15764;SDS011;7983;50.744;7.086;2023-04-24T06:41:58;4.10;;;3.50;;
15764;SDS011;7983;50.744;7.086;2023-04-24T06:44:23;4.20;;;3.05;;
15764;SDS011;7983;50.744;7.086;2023-04-24T06:46:52;5.07;;;3.45;;
15764;SDS011;7983;50.744;7.086;2023-04-24T06:49:17;3.85;;;3.10;;
15764;SDS011;7983;50.744;7.086;2023-04-24T06:51:43;3.45;;;3.03;;
15764;SDS011;7983;50.744;7.086;2023-04-24T06:54:09;2.90;;;2.67;;
15764;SDS011;7983;50.744;7.086;2023-04-24T06:56:37;3.10;;;2.70;;
15764;SDS011;7983;50.744;7.086;2023-04-24T06:59:03;2.75;;;2.42;;
15764;SDS011;7983;50.744;7.086;2023-04-24T07:01:31;2.85;;;2.63;;
15764;SDS011;7983;50.744;7.086;2023-04-24T07:03:57;3.03;;;2.30;;
15764;SDS011;7983;50.744;7.086;2023-04-24T07:06:22;2.40;;;2.20;;
15764;SDS011;7983;50.744;7.086;2023-04-24T07:08:48;2.50;;;2.10;;
15764;SDS011;7983;50.744;7.086;2023-04-24T07:11:16;2.40;;;2.20;;
15764;SDS011;7983;50.744;7.086;2023-04-24T07:13:44;2.13;;;1.90;;
15764;SDS011;7983;50.744;7.086;2023-04-24T07:16:12;2.05;;;1.85;;
15764;SDS011;7983;50.744;7.086;2023-04-24T07:18:38;2.22;;;2.03;;
15764;SDS011;7983;50.744;7.086;2023-04-24T07:21:04;2.15;;;1.90;;
15764;SDS011;7983;50.744;7.086;2023-04-24T07:23:30;2.53;;;2.33;;
15764;SDS011;7983;50.744;7.086;2023-04-24T07:25:56;2.72;;;2.20;;
15764;SDS011;7983;50.744;7.086;2023-04-24T07:28:22;2.30;;;1.92;;
15764;SDS011;7983;50.744;7.086;2023-04-24T07:30:50;1.90;;;1.55;;
15764;SDS011;7983;50.744;7.086;2023-04-24T07:33:19;2.08;;;1.88;;
15764;SDS011;7983;50.744;7.086;2023-04-24T07:35:44;2.63;;;1.77;;
15764;SDS011;7983;50.744;7.086;2023-04-24T07:38:12;1.85;;;1.65;;
15764;SDS011;7983;50.744;7.086;2023-04-24T07:40:40;1.70;;;1.50;;
15764;SDS011;7983;50.744;7.086;2023-04-24T07:43:07;1.67;;;1.35;;
15764;SDS011;7983;50.744;7.086;2023-04-24T07:45:33;1.67;;;1.30;;
15764;SDS011;7983;50.744;7.086;2023-04-24T07:48:02;2.47;;;1.38;;
15764;SDS011;7983;50.744;7.086;2023-04-24T07:50:28;1.98;;;1.50;;
15764;SDS011;7983;50.744;7.086;2023-04-24T07:52:54;1.40;;;1.30;;
15764;SDS011;7983;50.744;7.086;2023-04-24T07:55:19;1.40;;;1.25;;
15764;SDS011;7983;50.744;7.086;2023-04-24T07:57:45;1.33;;;1.15;;
15764;SDS011;7983;50.744;7.086;2023-04-24T08:00:13;1.42;;;1.23;;
15764;SDS011;7983;50.744;7.086;2023-04-24T08:02:41;1.20;;;1.10;;
15764;SDS011;7983;50.744;7.086;2023-04-24T08:05:11;1.42;;;1.10;;
15764;SDS011;7983;50.744;7.086;2023-04-24T08:07:37;1.25;;;0.95;;
15764;SDS011;7983;50.744;7.086;2023-04-24T08:10:07;1.08;;;0.90;;
15764;SDS011;7983;50.744;7.086;2023-04-24T08:12:35;1.63;;;0.90;;
15764;SDS011;7983;50.744;7.086;2023-04-24T08:15:01;1.35;;;0.90;;
15764;SDS011;7983;50.744;7.086;2023-04-24T08:17:26;1.88;;;0.90;;
15764;SDS011;7983;50.744;7.086;2023-04-24T08:19:52;1.08;;;0.90;;
15764;SDS011;7983;50.744;7.086;2023-04-24T08:22:24;1.42;;;0.95;;
15764;SDS011;7983;50.744;7.086;2023-04-24T08:24:52;1.27;;;0.70;;
15764;SDS011;7983;50.744;7.086;2023-04-24T08:27:18;0.70;;;0.70;;
15764;SDS011;7983;50.744;7.086;2023-04-24T08:29:43;1.02;;;0.70;;
15764;SDS011;7983;50.744;7.086;2023-04-24T08:32:09;1.75;;;0.70;;
15764;SDS011;7983;50.744;7.086;2023-04-24T08:34:35;1.03;;;0.80;;
15764;SDS011;7983;50.744;7.086;2023-04-24T08:37:00;1.27;;;1.10;;
15764;SDS011;7983;50.744;7.086;2023-04-24T08:39:28;1.90;;;1.20;;
15764;SDS011;7983;50.744;7.086;2023-04-24T08:41:55;1.20;;;1.10;;
15764;SDS011;7983;50.744;7.086;2023-04-24T08:44:20;2.53;;;1.50;;
15764;SDS011;7983;50.744;7.086;2023-04-24T08:46:49;1.42;;;1.23;;
15764;SDS011;7983;50.744;7.086;2023-04-24T08:49:17;2.10;;;1.23;;
15764;SDS011;7983;50.744;7.086;2023-04-24T08:51:44;1.23;;;1.00;;
15764;SDS011;7983;50.744;7.086;2023-04-24T08:54:11;1.40;;;1.20;;
15764;SDS011;7983;50.744;7.086;2023-04-24T08:56:40;1.90;;;1.50;;
15764;SDS011;7983;50.744;7.086;2023-04-24T08:59:09;1.87;;;1.30;;
15764;SDS011;7983;50.744;7.086;2023-04-24T09:01:38;1.93;;;1.23;;
15764;SDS011;7983;50.744;7.086;2023-04-24T09:04:08;1.70;;;1.60;;
15764;SDS011;7983;50.744;7.086;2023-04-24T09:06:35;1.93;;;1.60;;
15764;SDS011;7983;50.744;7.086;2023-04-24T09:09:04;2.93;;;2.00;;
15764;SDS011;7983;50.744;7.086;2023-04-24T09:11:30;1.97;;;1.77;;
15764;SDS011;7983;50.744;7.086;2023-04-24T09:13:57;2.00;;;1.80;;
15764;SDS011;7983;50.744;7.086;2023-04-24T09:16:24;2.37;;;1.90;;
15764;SDS011;7983;50.744;7.086;2023-04-24T09:18:51;3.90;;;2.07;;
15764;SDS011;7983;50.744;7.086;2023-04-24T09:21:21;3.30;;;2.17;;
15764;SDS011;7983;50.744;7.086;2023-04-24T09:23:47;2.53;;;2.00;;
15764;SDS011;7983;50.744;7.086;2023-04-24T09:26:28;2.93;;;2.10;;
15764;SDS011;7983;50.744;7.086;2023-04-24T09:29:00;2.93;;;2.20;;
15764;SDS011;7983;50.744;7.086;2023-04-24T09:31:30;4.97;;;2.93;;
15764;SDS011;7983;50.744;7.086;2023-04-24T09:33:57;3.27;;;2.63;;
15764;SDS011;7983;50.744;7.086;2023-04-24T09:36:34;3.97;;;2.60;;
15764;SDS011;7983;50.744;7.086;2023-04-24T09:39:10;3.03;;;2.50;;
15764;SDS011;7983;50.744;7.086;2023-04-24T09:41:47;3.63;;;2.60;;
15764;SDS011;7983;50.744;7.086;2023-04-24T09:44:20;3.10;;;2.60;;
15764;SDS011;7983;50.744;7.086;2023-04-24T09:46:58;4.17;;;3.13;;
15764;SDS011;7983;50.744;7.086;2023-04-24T09:49:28;4.97;;;3.10;;
15764;SDS011;7983;50.744;7.086;2023-04-24T09:52:10;2.87;;;2.17;;
15764;SDS011;7983;50.744;7.086;2023-04-24T09:54:39;4.20;;;2.53;;
15764;SDS011;7983;50.744;7.086;2023-04-24T09:57:07;3.37;;;2.53;;
15764;SDS011;7983;50.744;7.086;2023-04-24T09:59:34;3.13;;;2.53;;
15764;SDS011;7983;50.744;7.086;2023-04-24T10:02:00;3.83;;;2.60;;
15764;SDS011;7983;50.744;7.086;2023-04-24T10:04:27;2.50;;;2.20;;
15764;SDS011;7983;50.744;7.086;2023-04-24T10:06:56;3.63;;;2.67;;
15764;SDS011;7983;50.744;7.086;2023-04-24T10:09:23;5.47;;;3.40;;
15764;SDS011;7983;50.744;7.086;2023-04-24T10:11:51;3.87;;;2.90;;
15764;SDS011;7983;50.744;7.086;2023-04-24T10:14:19;2.80;;;2.37;;
15764;SDS011;7983;50.744;7.086;2023-04-24T10:16:49;3.83;;;2.88;;
15764;SDS011;7983;50.744;7.086;2023-04-24T10:19:15;4.83;;;3.17;;
15764;SDS011;7983;50.744;7.086;2023-04-24T10:21:47;3.73;;;2.80;;
15764;SDS011;7983;50.744;7.086;2023-04-24T10:24:16;3.60;;;2.90;;
15764;SDS011;7983;50.744;7.086;2023-04-24T10:26:43;4.00;;;2.83;;
15764;SDS011;7983;50.744;7.086;2023-04-24T10:29:13;3.60;;;3.30;;
15764;SDS011;7983;50.744;7.086;2023-04-24T10:31:43;3.00;;;2.57;;
15764;SDS011;7983;50.744;7.086;2023-04-24T10:34:13;4.40;;;2.80;;
15764;SDS011;7983;50.744;7.086;2023-04-24T10:37:02;3.87;;;2.90;;
15764;SDS011;7983;50.744;7.086;2023-04-24T10:39:29;4.30;;;3.03;;
15764;SDS011;7983;50.744;7.086;2023-04-24T10:41:58;4.77;;;2.90;;
15764;SDS011;7983;50.744;7.086;2023-04-24T10:44:24;5.13;;;3.35;;
15764;SDS011;7983;50.744;7.086;2023-04-24T10:46:53;3.35;;;2.90;;
15764;SDS011;7983;50.744;7.086;2023-04-24T10:49:31;4.25;;;3.00;;
15764;SDS011;7983;50.744;7.086;2023-04-24T10:52:00;4.07;;;3.00;;
15764;SDS011;7983;50.744;7.086;2023-04-24T10:57:25;4.50;;;2.92;;
15764;SDS011;7983;50.744;7.086;2023-04-24T10:59:49;4.75;;;3.00;;
15764;SDS011;7983;50.744;7.086;2023-04-24T11:02:16;5.70;;;3.75;;
15764;SDS011;7983;50.744;7.086;2023-04-24T11:04:44;6.53;;;3.85;;
15764;SDS011;7983;50.744;7.086;2023-04-24T11:07:11;5.15;;;3.67;;
15764;SDS011;7983;50.744;7.086;2023-04-24T11:09:37;6.30;;;3.80;;
15764;SDS011;7983;50.744;7.086;2023-04-24T11:12:13;4.38;;;3.30;;
15764;SDS011;7983;50.744;7.086;2023-04-24T11:17:29;7.10;;;3.58;;
15764;SDS011;7983;50.744;7.086;2023-04-24T11:22:38;6.65;;;4.00;;
15764;SDS011;7983;50.744;7.086;2023-04-24T11:25:09;5.68;;;4.20;;
15764;SDS011;7983;50.744;7.086;2023-04-24T11:30:07;4.82;;;3.63;;
15764;SDS011;7983;50.744;7.086;2023-04-24T11:35:05;6.38;;;4.30;;
15764;SDS011;7983;50.744;7.086;2023-04-24T11:37:52;4.85;;;4.22;;
15764;SDS011;7983;50.744;7.086;2023-04-24T11:40:22;6.35;;;4.80;;
15764;SDS011;7983;50.744;7.086;2023-04-24T11:42:52;6.38;;;4.75;;
15764;SDS011;7983;50.744;7.086;2023-04-24T11:45:31;7.57;;;4.78;;
15764;SDS011;7983;50.744;7.086;2023-04-24T11:47:59;7.10;;;4.40;;
15764;SDS011;7983;50.744;7.086;2023-04-24T11:50:25;6.35;;;4.00;;
15764;SDS011;7983;50.744;7.086;2023-04-24T11:52:56;5.70;;;3.90;;
15764;SDS011;7983;50.744;7.086;2023-04-24T11:57:52;6.22;;;3.53;;
15764;SDS011;7983;50.744;7.086;2023-04-24T12:00:28;6.35;;;4.03;;
15764;SDS011;7983;50.744;7.086;2023-04-24T12:03:05;8.50;;;3.78;;
15764;SDS011;7983;50.744;7.086;2023-04-24T12:05:33;6.13;;;3.70;;
15764;SDS011;7983;50.744;7.086;2023-04-24T12:08:04;7.88;;;3.78;;
15764;SDS011;7983;50.744;7.086;2023-04-24T12:10:31;7.00;;;3.70;;
15764;SDS011;7983;50.744;7.086;2023-04-24T12:13:00;3.92;;;2.78;;
15764;SDS011;7983;50.744;7.086;2023-04-24T12:15:28;8.10;;;3.90;;
15764;SDS011;7983;50.744;7.086;2023-04-24T12:17:56;8.93;;;4.80;;
15764;SDS011;7983;50.744;7.086;2023-04-24T12:20:29;5.75;;;3.90;;
15764;SDS011;7983;50.744;7.086;2023-04-24T12:22:59;5.97;;;4.30;;
15764;SDS011;7983;50.744;7.086;2023-04-24T12:25:29;6.43;;;4.40;;
15764;SDS011;7983;50.744;7.086;2023-04-24T12:30:28;5.65;;;4.47;;
15764;SDS011;7983;50.744;7.086;2023-04-24T12:32:58;5.03;;;3.90;;
15764;SDS011;7983;50.744;7.086;2023-04-24T12:35:25;7.28;;;4.15;;
15764;SDS011;7983;50.744;7.086;2023-04-24T12:38:04;8.70;;;5.57;;
15764;SDS011;7983;50.744;7.086;2023-04-24T12:40:31;7.28;;;4.95;;
15764;SDS011;7983;50.744;7.086;2023-04-24T12:42:57;8.48;;;5.30;;
15764;SDS011;7983;50.744;7.086;2023-04-24T12:45:23;7.65;;;4.82;;
15764;SDS011;7983;50.744;7.086;2023-04-24T12:47:50;6.68;;;5.13;;
15764;SDS011;7983;50.744;7.086;2023-04-24T12:50:15;7.13;;;4.82;;
15764;SDS011;7983;50.744;7.086;2023-04-24T12:52:42;9.85;;;5.07;;
15764;SDS011;7983;50.744;7.086;2023-04-24T12:55:08;7.75;;;4.70;;
15764;SDS011;7983;50.744;7.086;2023-04-24T12:57:37;7.18;;;5.07;;
15764;SDS011;7983;50.744;7.086;2023-04-24T13:00:04;7.95;;;4.85;;
15764;SDS011;7983;50.744;7.086;2023-04-24T13:02:32;7.28;;;5.35;;
15764;SDS011;7983;50.744;7.086;2023-04-24T13:04:59;7.95;;;4.43;;
15764;SDS011;7983;50.744;7.086;2023-04-24T13:07:25;7.60;;;4.93;;
15764;SDS011;7983;50.744;7.086;2023-04-24T13:09:52;5.53;;;4.43;;
15764;SDS011;7983;50.744;7.086;2023-04-24T13:12:18;6.90;;;4.55;;
15764;SDS011;7983;50.744;7.086;2023-04-24T13:14:48;6.50;;;4.15;;
15764;SDS011;7983;50.744;7.086;2023-04-24T13:17:14;6.43;;;4.28;;
15764;SDS011;7983;50.744;7.086;2023-04-24T13:19:40;7.25;;;4.20;;
15764;SDS011;7983;50.744;7.086;2023-04-24T13:22:10;8.27;;;4.65;;
15764;SDS011;7983;50.744;7.086;2023-04-24T13:24:37;5.95;;;3.88;;
15764;SDS011;7983;50.744;7.086;2023-04-24T13:27:04;4.80;;;3.88;;
15764;SDS011;7983;50.744;7.086;2023-04-24T13:29:33;5.65;;;3.50;;
15764;SDS011;7983;50.744;7.086;2023-04-24T13:32:01;7.13;;;4.50;;
15764;SDS011;7983;50.744;7.086;2023-04-24T13:34:26;5.43;;;3.80;;
15764;SDS011;7983;50.744;7.086;2023-04-24T13:36:55;5.30;;;3.50;;
15764;SDS011;7983;50.744;7.086;2023-04-24T13:39:22;4.38;;;3.47;;
15764;SDS011;7983;50.744;7.086;2023-04-24T13:41:48;4.85;;;3.80;;
15764;SDS011;7983;50.744;7.086;2023-04-24T13:44:17;4.90;;;3.95;;
15764;SDS011;7983;50.744;7.086;2023-04-24T13:46:44;5.80;;;3.75;;
15764;SDS011;7983;50.744;7.086;2023-04-24T13:49:12;5.40;;;3.75;;
15764;SDS011;7983;50.744;7.086;2023-04-24T13:51:43;6.93;;;3.50;;
15764;SDS011;7983;50.744;7.086;2023-04-24T13:54:11;7.13;;;4.22;;
15764;SDS011;7983;50.744;7.086;2023-04-24T13:56:38;6.00;;;3.80;;
15764;SDS011;7983;50.744;7.086;2023-04-24T13:59:04;11.75;;;4.85;;
15764;SDS011;7983;50.744;7.086;2023-04-24T14:01:33;5.07;;;4.20;;
15764;SDS011;7983;50.744;7.086;2023-04-24T14:03:59;6.90;;;4.70;;
15764;SDS011;7983;50.744;7.086;2023-04-24T14:06:25;7.40;;;3.90;;
15764;SDS011;7983;50.744;7.086;2023-04-24T14:08:53;7.25;;;5.00;;
15764;SDS011;7983;50.744;7.086;2023-04-24T14:11:21;6.28;;;4.13;;
15764;SDS011;7983;50.744;7.086;2023-04-24T14:13:47;7.00;;;3.92;;
15764;SDS011;7983;50.744;7.086;2023-04-24T14:16:13;6.50;;;4.18;;
15764;SDS011;7983;50.744;7.086;2023-04-24T14:18:39;6.55;;;4.30;;
15764;SDS011;7983;50.744;7.086;2023-04-24T14:21:07;5.50;;;3.78;;
15764;SDS011;7983;50.744;7.086;2023-04-24T14:23:35;7.15;;;4.40;;
15764;SDS011;7983;50.744;7.086;2023-04-24T14:26:03;7.95;;;4.55;;
15764;SDS011;7983;50.744;7.086;2023-04-24T14:28:28;6.97;;;4.50;;
15764;SDS011;7983;50.744;7.086;2023-04-24T14:30:54;6.82;;;4.45;;
15764;SDS011;7983;50.744;7.086;2023-04-24T14:33:20;5.95;;;4.03;;
15764;SDS011;7983;50.744;7.086;2023-04-24T14:35:45;6.50;;;4.10;;
15764;SDS011;7983;50.744;7.086;2023-04-24T14:38:14;6.80;;;4.00;;
15764;SDS011;7983;50.744;7.086;2023-04-24T14:40:40;6.93;;;5.18;;
15764;SDS011;7983;50.744;7.086;2023-04-24T14:43:06;5.15;;;4.18;;
15764;SDS011;7983;50.744;7.086;2023-04-24T14:45:32;5.53;;;4.13;;
15764;SDS011;7983;50.744;7.086;2023-04-24T14:47:57;4.75;;;3.63;;
15764;SDS011;7983;50.744;7.086;2023-04-24T14:50:25;5.15;;;4.18;;
15764;SDS011;7983;50.744;7.086;2023-04-24T14:52:54;5.93;;;3.88;;
15764;SDS011;7983;50.744;7.086;2023-04-24T14:55:24;6.70;;;4.43;;
15764;SDS011;7983;50.744;7.086;2023-04-24T14:57:52;5.20;;;3.75;;
15764;SDS011;7983;50.744;7.086;2023-04-24T15:00:18;7.32;;;3.72;;
15764;SDS011;7983;50.744;7.086;2023-04-24T15:02:45;7.07;;;4.22;;
15764;SDS011;7983;50.744;7.086;2023-04-24T15:05:10;6.88;;;4.32;;
15764;SDS011;7983;50.744;7.086;2023-04-24T15:07:37;5.30;;;3.90;;
15764;SDS011;7983;50.744;7.086;2023-04-24T15:10:06;4.30;;;3.50;;
15764;SDS011;7983;50.744;7.086;2023-04-24T15:12:35;4.97;;;4.20;;
15764;SDS011;7983;50.744;7.086;2023-04-24T15:15:00;4.53;;;4.03;;
15764;SDS011;7983;50.744;7.086;2023-04-24T15:17:26;4.88;;;3.90;;
15764;SDS011;7983;50.744;7.086;2023-04-24T15:19:54;4.30;;;3.50;;
15764;SDS011;7983;50.744;7.086;2023-04-24T15:22:20;4.97;;;3.80;;